createdAt,value
2022-10-02T00:00:25.386Z,15
2022-10-02T00:11:14.816Z,14.9
2022-10-02T00:16:53.404Z,14.9
2022-10-02T00:22:29.990Z,14.9
2022-10-02T00:33:30.395Z,14.9
2022-10-02T00:38:51.755Z,14.8
2022-10-02T00:44:28.397Z,14.8
2022-10-02T00:50:05.269Z,14.8
2022-10-02T01:01:02.968Z,14.8
2022-10-02T01:06:40.523Z,14.8
2022-10-02T01:17:23.986Z,14.7
2022-10-02T01:23:01.450Z,14.7
2022-10-02T01:34:00.095Z,14.6
2022-10-02T01:39:37.245Z,14.6
2022-10-02T01:44:58.465Z,14.5
2022-10-02T01:50:36.485Z,14.4
2022-10-02T01:56:14.474Z,14.4
2022-10-02T02:01:51.756Z,14.3
2022-10-02T02:07:30.321Z,14.3
2022-10-02T02:13:07.539Z,14.1
2022-10-02T02:18:29.504Z,14.1
2022-10-02T02:23:50.985Z,14
2022-10-02T02:29:14.410Z,13.9
2022-10-02T02:34:51.107Z,13.8
2022-10-02T02:40:27.619Z,13.8
2022-10-02T02:46:08.070Z,13.7
2022-10-02T02:51:45.372Z,13.6
2022-10-02T02:57:28.766Z,13.6
2022-10-02T03:03:06.951Z,13.5
2022-10-02T03:08:44.532Z,13.4
2022-10-02T03:14:21.088Z,13.4
2022-10-02T03:19:59.168Z,13.3
2022-10-02T03:25:36.187Z,13.3
2022-10-02T03:31:42.605Z,13.2
2022-10-02T03:37:19.829Z,13.2
2022-10-02T03:43:25.902Z,13.2
2022-10-02T03:49:28.130Z,13.1
2022-10-02T03:54:52.400Z,13.1
2022-10-02T04:00:13.342Z,13.1
2022-10-02T04:05:35.478Z,13.1
2022-10-02T04:10:46.836Z,13.1
2022-10-02T04:15:53.137Z,13.1
2022-10-02T04:20:58.877Z,13.1
2022-10-02T04:26:05.856Z,13.1
2022-10-02T04:31:12.299Z,13.1
2022-10-02T04:36:03.039Z,13.1
2022-10-02T04:41:30.643Z,13.1
2022-10-02T04:47:08.281Z,13.2
2022-10-02T04:52:44.647Z,13.3
2022-10-02T04:58:22.070Z,13.4
2022-10-02T05:03:45.404Z,13.6
2022-10-02T05:09:27.111Z,13.9
2022-10-02T05:15:05.859Z,14.2
2022-10-02T05:20:28.158Z,14.4
2022-10-02T05:26:08.615Z,14.6
2022-10-02T05:31:15.285Z,14.8
2022-10-02T05:36:26.004Z,15
2022-10-02T05:46:26.528Z,15.5
2022-10-02T05:51:32.910Z,15.7
2022-10-02T05:56:55.770Z,15.9
2022-10-02T06:02:18.026Z,16.1
2022-10-02T06:07:28.218Z,16.3
2022-10-02T06:12:34.938Z,16.8
2022-10-02T06:18:15.989Z,18.4
2022-10-02T06:23:42.383Z,27.2
2022-10-02T06:29:22.581Z,29.6
2022-10-02T06:34:32.132Z,31.4
2022-10-02T06:40:09.915Z,32.7
2022-10-02T06:45:15.733Z,33.8
2022-10-02T06:50:22.485Z,34.9
2022-10-02T06:55:32.607Z,36.1
2022-10-02T07:00:39.161Z,37.2
2022-10-02T07:06:01.803Z,38.3
2022-10-02T07:11:24.598Z,39.4
2022-10-02T07:17:01.855Z,40.6
2022-10-02T07:22:49.249Z,41.7
2022-10-02T07:28:17.497Z,42.7
2022-10-02T07:33:46.289Z,43.4
2022-10-02T07:39:24.449Z,44.4
2022-10-02T07:45:02.465Z,45.3
2022-10-02T07:50:40.194Z,46.3
2022-10-02T07:56:24.183Z,46.8
2022-10-02T08:02:01.701Z,47.8
2022-10-02T08:07:45.417Z,48.6
2022-10-02T08:13:22.742Z,49.4
2022-10-02T08:19:27.477Z,50.4
2022-10-02T08:24:49.168Z,51
2022-10-02T08:30:32.357Z,51.2
2022-10-02T08:36:15.414Z,51.4
2022-10-02T08:41:36.737Z,52.3
2022-10-02T08:47:14.553Z,53.1
2022-10-02T08:52:52.128Z,53.8
2022-10-02T08:58:17.423Z,54.3
2022-10-02T09:03:43.836Z,55
2022-10-02T09:08:40.823Z,55.6
2022-10-02T09:13:47.418Z,56.2
2022-10-02T09:19:14.263Z,56.8
2022-10-02T09:24:37.876Z,57.4
2022-10-02T09:29:45.276Z,57.9
2022-10-02T09:35:22.516Z,58.5
2022-10-02T09:40:59.392Z,59.1
2022-10-02T09:46:37.070Z,59.8
2022-10-02T09:52:14.979Z,60.2
2022-10-02T09:57:52.423Z,55.6
2022-10-02T10:03:35.929Z,52.2
2022-10-02T10:09:37.421Z,52.9
2022-10-02T10:15:15.383Z,52.8
2022-10-02T10:20:52.887Z,54.9
2022-10-02T10:26:34.328Z,56.9
2022-10-02T10:32:12.657Z,57.9
2022-10-02T10:37:38.836Z,59
2022-10-02T10:43:23.047Z,59.8
2022-10-02T10:49:05.878Z,60.3
2022-10-02T10:50:33.743Z,60.5
2022-10-02T10:56:14.736Z,61.3
2022-10-02T11:01:42.027Z,61.9
2022-10-02T11:07:04.004Z,62.4
2022-10-02T11:12:26.388Z,62.9
2022-10-02T11:17:48.668Z,63.4
2022-10-02T11:23:10.928Z,63.8
2022-10-02T11:28:52.704Z,64.2
2022-10-02T11:34:31.346Z,64.5
2022-10-02T11:40:08.888Z,64.8
2022-10-02T11:45:45.778Z,65.1
2022-10-02T11:51:23.419Z,65.3
2022-10-02T11:57:03.253Z,65.6
2022-10-02T12:02:40.989Z,65.7
2022-10-02T12:08:19.186Z,65.9
2022-10-02T12:13:57.698Z,66
2022-10-02T12:19:34.976Z,66.1
2022-10-02T12:24:57.094Z,66.3
2022-10-02T12:30:34.906Z,66.3
2022-10-02T12:36:14.962Z,66.3
2022-10-02T12:41:56.731Z,66.3
2022-10-02T12:47:19.126Z,66.3
2022-10-02T12:52:56.246Z,66.2
2022-10-02T12:58:33.881Z,66.1
2022-10-02T13:04:40.226Z,65.9
2022-10-02T13:10:19.412Z,65.6
2022-10-02T13:15:41.363Z,64.8
2022-10-02T13:21:24.024Z,64.4
2022-10-02T13:27:06.261Z,63.4
2022-10-02T13:32:46.742Z,62.6
2022-10-02T13:38:24.828Z,61.1
2022-10-02T13:44:02.916Z,60.2
2022-10-02T13:49:40.336Z,60.4
2022-10-02T13:55:21.818Z,59.9
2022-10-02T14:01:03.199Z,59.2
2022-10-02T14:06:41.548Z,58.9
2022-10-02T14:12:19.016Z,58.3
2022-10-02T14:18:00.626Z,57.4
2022-10-02T14:23:37.931Z,56.8
2022-10-02T14:29:15.804Z,54.2
2022-10-02T14:34:53.362Z,50.3
2022-10-02T14:40:31.678Z,47.6
2022-10-02T14:46:10.443Z,45.4
2022-10-02T14:51:47.694Z,43.3
2022-10-02T14:57:25.420Z,41.2
2022-10-02T15:20:05.622Z,34.4
2022-10-02T15:25:44.030Z,33.1
2022-10-02T15:31:45.703Z,31.9
2022-10-02T15:37:25.513Z,30.8
2022-10-02T15:43:06.742Z,29.5
2022-10-02T15:48:43.955Z,27.9
2022-10-02T15:54:21.528Z,26.8
2022-10-02T16:00:04.551Z,25.7
2022-10-02T16:05:42.466Z,24.7
2022-10-02T16:11:18.980Z,23.8
2022-10-02T16:16:58.755Z,22.9
2022-10-02T16:22:36.475Z,22
2022-10-02T16:23:54.202Z,21.8
2022-10-02T16:29:32.055Z,21.1
2022-10-02T16:34:39.681Z,20.4
2022-10-02T16:40:17.695Z,19.7
2022-10-02T16:45:56.942Z,19.1
2022-10-02T16:51:20.571Z,18.6
2022-10-02T16:56:57.552Z,18.1
2022-10-02T17:03:07.163Z,17.6
2022-10-02T17:08:29.756Z,17.3
2022-10-02T17:14:06.771Z,16.9
2022-10-02T17:19:46.379Z,16.5
2022-10-02T17:25:24.700Z,16.2
2022-10-02T17:31:06.291Z,15.9
2022-10-02T17:36:48.692Z,15.6
2022-10-02T17:42:27.262Z,15.3
2022-10-02T17:48:09.865Z,15.1
2022-10-02T17:54:21.199Z,14.9
2022-10-02T18:00:03.641Z,14.7
2022-10-02T18:11:05.093Z,14.3
2022-10-02T18:16:34.029Z,14.2
2022-10-02T18:21:40.494Z,14
2022-10-02T18:27:02.031Z,13.9
2022-10-02T18:38:26.368Z,13.6
2022-10-02T18:44:04.296Z,13.4
2022-10-02T18:49:30.474Z,13.4
2022-10-02T18:55:07.768Z,13.2
2022-10-02T19:06:14.058Z,12.9
2022-10-02T19:11:51.595Z,12.8
2022-10-02T19:17:32.614Z,12.6
2022-10-02T19:23:11.017Z,12.4
2022-10-02T19:28:33.251Z,12.3
2022-10-02T19:34:10.548Z,12.2
2022-10-02T19:39:33.425Z,12
2022-10-02T19:45:20.570Z,11.9
2022-10-02T19:50:59.778Z,11.7
2022-10-02T20:02:06.880Z,11.3
2022-10-02T20:07:28.730Z,11.2
2022-10-02T20:12:55.570Z,11.1
2022-10-02T20:18:35.908Z,10.9
2022-10-02T20:24:12.716Z,10.7
2022-10-02T20:29:51.139Z,10.5
